Time;durP1;ratioP1;P1;durP2;ratioP2;P2;SDS_P1;SDS_P2;PMS_P1;PMS_P2;Temp;Humidity;BMP_temperature;BMP_pressure;BME280_temperature;BME280_humidity;BME280_pressure;Samples;Min_cycle;Max_cycle;Signal;HPM_P1;HPM_P2
2023/12/13 00:01:48;;;;;;;10.83;3.30;;;;;;;19.57;61.61;98870.78;4969919;28;20264;-58
2023/12/13 00:04:14;;;;;;;9.60;2.77;;;;;;;19.55;61.93;98869.56;4972644;28;20194;-58
2023/12/13 00:06:39;;;;;;;13.87;3.87;;;;;;;19.59;61.70;98870.38;4972801;28;20186;-58
2023/12/13 00:09:08;;;;;;;14.07;3.77;;;;;;;19.55;61.86;98869.56;4972856;28;20237;-58
2023/12/13 00:11:33;;;;;;;6.80;3.20;;;;;;;19.55;61.76;98864.66;4957044;28;20211;-58
2023/12/13 00:13:59;;;;;;;6.43;3.17;;;;;;;19.54;61.80;98865.91;4953568;29;20485;-58
2023/12/13 00:16:24;;;;;;;11.90;3.10;;;;;;;19.55;61.44;98867.53;4953231;29;20526;-58
2023/12/13 00:18:50;;;;;;;9.60;3.60;;;;;;;19.54;61.57;98863.06;4954005;28;20184;-58
2023/12/13 00:21:17;;;;;;;10.70;3.30;;;;;;;19.54;61.75;98860.19;4956146;28;20195;-57
2023/12/13 00:23:43;;;;;;;10.97;2.93;;;;;;;19.52;62.01;98853.25;4954218;29;20559;-58
2023/12/13 00:26:18;;;;;;;11.70;3.10;;;;;;;19.52;61.78;98848.34;4956534;28;20442;-58
2023/12/13 00:28:44;;;;;;;10.93;3.33;;;;;;;19.50;61.85;98847.94;4953939;29;20183;-58
2023/12/13 00:31:10;;;;;;;8.07;2.80;;;;;;;19.56;61.46;98851.97;4959149;28;20466;-58
2023/12/13 00:33:35;;;;;;;8.63;3.27;;;;;;;19.50;61.94;98845.09;4973373;28;20182;-58
2023/12/13 00:36:01;;;;;;;9.90;4.10;;;;;;;19.52;61.75;98836.09;4973454;28;20869;-58
2023/12/13 00:38:26;;;;;;;7.43;3.20;;;;;;;19.53;61.46;98837.72;4956917;28;20623;-58
2023/12/13 00:40:52;;;;;;;14.43;3.27;;;;;;;19.55;61.52;98841.78;4959044;28;20205;-58
2023/12/13 00:43:17;;;;;;;6.50;2.20;;;;;;;19.53;61.68;98849.16;4972686;28;20202;-58
2023/12/13 00:45:43;;;;;;;7.00;3.40;;;;;;;19.53;61.68;98838.53;4968695;28;20209;-58
2023/12/13 00:48:08;;;;;;;7.63;3.07;;;;;;;19.51;61.65;98841.00;4935701;29;20259;-58
2023/12/13 00:50:34;;;;;;;7.83;3.20;;;;;;;19.51;61.39;98834.47;4952671;29;20183;-58
2023/12/13 00:52:59;;;;;;;9.90;3.47;;;;;;;19.49;61.90;98836.91;4955125;28;20187;-58
2023/12/13 00:55:25;;;;;;;9.37;2.97;;;;;;;19.51;62.31;98837.34;4954430;28;20193;-58
2023/12/13 00:57:51;;;;;;;7.80;2.40;;;;;;;19.49;61.47;98837.75;4967509;28;20194;-58
2023/12/13 01:00:17;;;;;;;8.17;3.30;;;;;;;19.49;61.68;98839.78;4952711;28;20533;-58
2023/12/13 01:02:42;;;;;;;8.07;3.33;;;;;;;19.51;61.47;98837.34;4987291;28;20684;-58
2023/12/13 01:05:08;;;;;;;13.53;3.30;;;;;;;19.48;61.50;98832.44;4955378;28;20197;-58
2023/12/13 01:07:33;;;;;;;7.50;3.33;;;;;;;19.49;61.16;98832.03;4970100;28;20190;-58
2023/12/13 01:09:58;;;;;;;8.07;2.73;;;;;;;19.50;61.04;98832.81;4972643;28;20183;-58
2023/12/13 01:12:24;;;;;;;5.60;2.60;;;;;;;19.47;61.61;98834.47;4972796;28;20178;-58
2023/12/13 01:14:50;;;;;;;7.67;3.50;;;;;;;19.49;61.23;98831.19;4955143;28;20186;-58
2023/12/13 01:17:15;;;;;;;10.47;3.03;;;;;;;19.45;61.62;98831.22;4961352;28;20231;-58
2023/12/13 01:19:41;;;;;;;10.77;2.53;;;;;;;19.50;61.11;98829.94;4966408;28;20434;-58
2023/12/13 01:22:08;;;;;;;7.83;2.60;;;;;;;19.49;61.53;98843.47;4987115;28;20182;-58
2023/12/13 01:24:33;;;;;;;8.53;2.33;;;;;;;19.47;61.58;98845.91;4972224;28;20210;-58
2023/12/13 01:26:59;;;;;;;9.70;3.50;;;;;;;19.49;60.90;98854.09;4969776;28;20592;-58
2023/12/13 01:29:24;;;;;;;9.40;3.03;;;;;;;19.48;61.28;98849.59;4954655;28;20186;-58
2023/12/13 01:31:50;;;;;;;6.10;2.77;;;;;;;19.47;60.99;98854.50;4972137;28;20596;-58
2023/12/13 01:34:15;;;;;;;8.60;3.40;;;;;;;19.48;61.37;98861.06;4971230;28;20209;-58
2023/12/13 01:36:41;;;;;;;8.20;2.87;;;;;;;19.48;60.84;98859.03;4968684;28;20202;-58
2023/12/13 01:39:07;;;;;;;9.00;2.70;;;;;;;19.46;61.29;98852.88;4971653;28;20216;-58
2023/12/13 01:41:33;;;;;;;5.30;2.47;;;;;;;19.45;61.49;98854.13;4971321;28;20585;-58
2023/12/13 01:43:58;;;;;;;10.03;2.53;;;;;;;19.48;61.19;98904.00;4968465;28;20214;-58
2023/12/13 01:46:24;;;;;;;8.20;2.80;;;;;;;19.46;61.03;98898.69;4963417;28;20254;-58
2023/12/13 01:48:49;;;;;;;9.00;2.67;;;;;;;19.46;61.36;98895.03;4971146;28;20234;-58
2023/12/13 01:51:15;;;;;;;5.80;2.50;;;;;;;19.46;61.46;98901.56;4970068;28;20186;-58
2023/12/13 01:53:40;;;;;;;7.03;2.93;;;;;;;19.47;60.97;98886.00;4948944;28;20550;-58
2023/12/13 01:56:07;;;;;;;6.73;2.20;;;;;;;19.47;61.15;98897.44;4971140;28;20187;-58
2023/12/13 01:58:39;;;;;;;8.90;2.87;;;;;;;19.46;61.20;98890.09;4971309;28;20186;-58
2023/12/13 02:01:08;;;;;;;10.43;2.73;;;;;;;19.46;60.92;98880.72;4969454;28;20441;-58
2023/12/13 02:03:33;;;;;;;7.67;2.70;;;;;;;19.43;61.05;98873.78;4949220;28;20554;-58
2023/12/13 02:06:00;;;;;;;6.60;2.50;;;;;;;19.44;61.05;98883.16;4935088;29;20438;-58
2023/12/13 02:08:25;;;;;;;9.43;2.63;;;;;;;19.45;60.95;98885.63;4954852;28;20266;-58
2023/12/13 02:10:51;;;;;;;5.93;2.40;;;;;;;19.45;61.07;98882.75;4952328;28;20450;-58
2023/12/13 02:13:16;;;;;;;7.93;2.70;;;;;;;19.44;61.30;98871.72;4937429;29;20179;-58
2023/12/13 02:15:42;;;;;;;5.90;2.30;;;;;;;19.41;61.61;98867.66;4952430;29;20186;-58
2023/12/13 02:18:09;;;;;;;8.77;2.97;;;;;;;19.42;61.06;98860.69;4952425;29;20223;-58
2023/12/13 02:20:34;;;;;;;7.33;2.53;;;;;;;19.43;61.19;98853.75;4952422;29;20555;-58
2023/12/13 02:23:00;;;;;;;5.73;2.03;;;;;;;19.40;61.19;98853.75;4954356;28;20462;-58
2023/12/13 02:25:51;;;;;;;6.80;2.83;;;;;;;19.42;61.43;98848.44;4954061;28;20355;-57
2023/12/13 02:28:17;;;;;;;8.60;2.77;;;;;;;19.42;60.80;98837.00;4955623;28;20195;-58
2023/12/13 02:30:42;;;;;;;5.47;2.77;;;;;;;19.40;61.14;98828.81;4952304;29;20422;-58
2023/12/13 02:33:10;;;;;;;7.43;2.80;;;;;;;19.38;61.52;98822.72;4967879;28;20179;-58
2023/12/13 02:35:36;;;;;;;6.63;2.53;;;;;;;19.40;61.27;98823.09;4953891;28;20775;-58
2023/12/13 02:38:01;;;;;;;10.30;3.17;;;;;;;19.41;61.40;98815.34;4950667;29;20426;-58
2023/12/13 02:40:27;;;;;;;6.03;2.30;;;;;;;19.42;60.62;98814.09;4956605;28;20539;-58
2023/12/13 02:42:52;;;;;;;6.67;2.47;;;;;;;19.41;61.06;98813.28;4963517;28;20639;-58
2023/12/13 02:45:17;;;;;;;5.30;2.10;;;;;;;19.41;60.78;98807.56;4967051;28;20179;-58
2023/12/13 02:47:43;;;;;;;6.27;2.17;;;;;;;19.40;61.01;98803.06;4969935;28;20182;-58
2023/12/13 02:50:10;;;;;;;6.53;2.60;;;;;;;19.39;61.32;98812.06;4969420;28;20269;-58
2023/12/13 02:52:36;;;;;;;6.20;2.70;;;;;;;19.38;60.63;98799.81;4967999;28;20191;-58
2023/12/13 02:55:01;;;;;;;4.93;2.50;;;;;;;19.39;60.82;98798.59;4970966;28;20433;-58
2023/12/13 02:57:26;;;;;;;5.40;2.40;;;;;;;19.37;61.24;98795.31;4968611;28;20182;-57
2023/12/13 02:59:52;;;;;;;7.60;2.60;;;;;;;19.36;60.78;98799.41;4970759;28;20178;-58
2023/12/13 03:02:17;;;;;;;7.47;2.40;;;;;;;19.40;60.92;98796.53;4970558;28;20191;-58
2023/12/13 03:04:43;;;;;;;5.33;2.23;;;;;;;19.38;61.05;98784.69;4970130;28;20202;-58
2023/12/13 03:07:08;;;;;;;6.80;2.10;;;;;;;19.35;60.81;98792.06;4968110;28;20251;-58
2023/12/13 03:09:34;;;;;;;6.80;2.10;;;;;;;19.37;60.65;98781.00;4970154;28;20174;-58
2023/12/13 03:11:59;;;;;;;7.87;2.00;;;;;;;19.37;60.86;98780.22;4970427;28;20202;-58
2023/12/13 03:14:25;;;;;;;4.03;2.10;;;;;;;19.36;61.07;98770.81;4970672;28;20584;-58
2023/12/13 03:16:51;;;;;;;11.50;2.63;;;;;;;19.36;61.13;98765.09;4957219;28;20237;-58
2023/12/13 03:19:16;;;;;;;7.80;2.67;;;;;;;19.35;60.77;98766.31;4970259;28;20191;-58
2023/12/13 03:21:42;;;;;;;6.00;2.07;;;;;;;19.34;61.06;98756.13;4970193;28;20175;-58
2023/12/13 03:24:07;;;;;;;5.83;2.10;;;;;;;19.34;60.73;98758.16;4968863;28;20210;-58
2023/12/13 03:26:33;;;;;;;6.93;2.77;;;;;;;19.33;60.82;98748.78;4964025;28;20256;-58
2023/12/13 03:28:58;;;;;;;9.10;2.37;;;;;;;19.35;60.80;98752.00;4968902;28;20218;-58
2023/12/13 03:31:23;;;;;;;3.70;1.70;;;;;;;19.37;60.65;98743.00;4951092;28;20193;-58
2023/12/13 03:33:49;;;;;;;5.57;2.30;;;;;;;19.36;60.44;98735.66;4968577;28;20205;-58
2023/12/13 03:36:15;;;;;;;3.70;1.90;;;;;;;19.34;60.83;98732.41;4968198;28;20182;-58
2023/12/13 03:38:42;;;;;;;4.90;2.20;;;;;;;19.32;61.19;98738.53;4949690;28;20186;-58
2023/12/13 03:41:07;;;;;;;6.20;2.20;;;;;;;19.33;60.90;98733.63;4966978;28;20765;-58
2023/12/13 03:43:32;;;;;;;7.87;2.10;;;;;;;19.34;60.59;98744.66;4968750;28;20454;-58
2023/12/13 03:45:58;;;;;;;5.87;2.33;;;;;;;19.31;61.14;98739.78;4970530;28;20587;-58
2023/12/13 03:48:23;;;;;;;4.33;2.17;;;;;;;19.31;60.83;98742.66;4968426;28;20687;-58
2023/12/13 03:50:49;;;;;;;5.30;2.33;;;;;;;19.33;60.46;98745.91;4969966;28;20715;-58
2023/12/13 03:53:14;;;;;;;4.33;2.00;;;;;;;19.33;60.84;98742.22;4968055;28;20181;-58
2023/12/13 03:55:40;;;;;;;6.23;2.20;;;;;;;19.32;60.88;98735.69;4956344;28;20197;-58
2023/12/13 03:58:05;;;;;;;4.13;2.00;;;;;;;19.32;60.68;98729.16;4969216;28;20202;-58
2023/12/13 04:00:31;;;;;;;4.73;2.00;;;;;;;19.32;60.91;98727.09;4969249;28;20392;-58
2023/12/13 04:02:56;;;;;;;5.13;2.07;;;;;;;19.34;60.66;98732.41;4950357;28;20198;-58
2023/12/13 04:05:22;;;;;;;4.97;1.67;;;;;;;19.32;60.83;98734.88;4969192;28;20437;-58
2023/12/13 04:07:47;;;;;;;4.20;1.90;;;;;;;19.31;60.59;98725.47;4952350;28;20202;-58
2023/12/13 04:10:13;;;;;;;3.90;1.90;;;;;;;19.33;60.76;98725.06;4955380;28;20207;-58
2023/12/13 04:12:39;;;;;;;3.60;1.30;;;;;;;19.32;60.43;98714.84;4951112;29;20186;-58
2023/12/13 04:15:05;;;;;;;6.83;2.07;;;;;;;19.30;60.65;98723.84;4961311;28;20576;-58
2023/12/13 04:17:30;;;;;;;5.00;2.20;;;;;;;19.28;60.90;98717.75;4969114;28;20232;-58
2023/12/13 04:19:57;;;;;;;8.43;2.10;;;;;;;19.31;60.73;98719.75;4966196;28;20183;-58
2023/12/13 04:22:22;;;;;;;5.00;2.40;;;;;;;19.31;60.38;98722.63;4972839;28;20185;-58
2023/12/13 04:24:48;;;;;;;3.90;1.97;;;;;;;19.31;60.82;98716.09;4971722;28;20461;-58
2023/12/13 04:27:13;;;;;;;4.33;1.83;;;;;;;19.31;60.78;98711.16;4957563;28;20186;-58
2023/12/13 04:29:39;;;;;;;4.53;2.13;;;;;;;19.30;60.74;98709.56;4950776;29;20183;-58
2023/12/13 04:32:04;;;;;;;5.80;2.30;;;;;;;19.29;60.82;98707.09;4957025;28;20214;-59
2023/12/13 04:34:30;;;;;;;5.70;2.10;;;;;;;19.29;61.21;98702.22;4952955;29;20175;-58
2023/12/13 04:36:55;;;;;;;4.30;1.83;;;;;;;19.27;60.93;98706.72;4953516;29;20904;-58
2023/12/13 04:39:21;;;;;;;5.30;2.37;;;;;;;19.27;60.66;98704.66;4953938;29;20202;-58
2023/12/13 04:41:46;;;;;;;4.17;1.90;;;;;;;19.28;60.67;98699.78;4956647;28;20187;-58
2023/12/13 04:44:12;;;;;;;5.00;2.20;;;;;;;19.28;60.87;98703.44;4969966;28;20213;-58
2023/12/13 04:46:39;;;;;;;3.80;1.53;;;;;;;19.29;61.03;98695.66;4971251;28;20246;-58
2023/12/13 04:49:04;;;;;;;5.90;1.80;;;;;;;19.27;60.69;98692.44;4936431;29;20218;-58
2023/12/13 04:51:30;;;;;;;4.83;2.03;;;;;;;19.27;60.57;98693.22;4953924;29;20427;-58
2023/12/13 04:53:55;;;;;;;7.00;2.00;;;;;;;19.29;60.31;98689.94;4959204;28;20178;-58
2023/12/13 04:56:21;;;;;;;5.10;1.57;;;;;;;19.29;61.07;98696.50;4972935;28;20191;-58
2023/12/13 04:58:46;;;;;;;4.63;1.83;;;;;;;19.27;60.61;98678.91;4972810;28;20185;-58
2023/12/13 05:01:11;;;;;;;3.30;1.70;;;;;;;19.27;60.87;98689.56;4962604;28;20195;-58
2023/12/13 05:03:37;;;;;;;9.53;2.57;;;;;;;19.27;60.55;98683.84;4972777;28;20202;-58
2023/12/13 05:06:03;;;;;;;3.50;1.50;;;;;;;19.29;60.42;98673.59;4972932;28;20186;-58
2023/12/13 05:08:30;;;;;;;4.93;1.70;;;;;;;19.27;60.58;98670.31;4968454;28;20205;-58
2023/12/13 05:10:56;;;;;;;3.87;1.70;;;;;;;19.27;60.96;98676.06;4972425;28;20572;-58
2023/12/13 05:13:22;;;;;;;4.60;1.83;;;;;;;19.27;60.51;98675.25;4971476;28;20421;-58
2023/12/13 05:15:48;;;;;;;6.07;2.13;;;;;;;19.27;60.43;98678.91;4970401;28;20240;-58
2023/12/13 05:18:13;;;;;;;4.47;1.63;;;;;;;19.27;60.79;98670.31;4971980;28;20469;-59
2023/12/13 05:20:39;;;;;;;4.63;1.70;;;;;;;19.28;60.38;98674.00;4986768;28;20667;-57
2023/12/13 05:23:04;;;;;;;5.40;1.80;;;;;;;19.27;60.48;98676.06;4984465;28;20309;-58
2023/12/13 05:25:30;;;;;;;5.60;1.60;;;;;;;19.25;60.68;98672.81;4953811;28;20198;-58
2023/12/13 05:27:55;;;;;;;3.70;1.60;;;;;;;19.27;60.28;98678.91;4971479;28;20237;-58
2023/12/13 05:30:23;;;;;;;4.70;1.87;;;;;;;19.26;60.68;98677.28;4970441;28;20183;-58
2023/12/13 05:32:50;;;;;;;3.30;1.70;;;;;;;19.27;61.07;98678.13;4964097;28;20202;-58
2023/12/13 05:35:15;;;;;;;6.10;2.00;;;;;;;19.25;60.52;98672.81;4952029;29;20513;-58
2023/12/13 05:37:41;;;;;;;5.87;1.90;;;;;;;19.26;60.14;98665.84;4952160;29;20427;-58
2023/12/13 05:40:07;;;;;;;3.97;1.50;;;;;;;19.28;60.80;98677.69;4953029;29;20213;-58
2023/12/13 05:42:33;;;;;;;3.53;1.60;;;;;;;19.27;60.63;98676.06;4955199;28;20183;-58
2023/12/13 05:44:59;;;;;;;5.40;1.90;;;;;;;19.26;60.68;98671.56;4969964;28;20424;-58
2023/12/13 05:47:24;;;;;;;5.23;1.73;;;;;;;19.26;60.81;98670.78;4964146;28;20802;-58
2023/12/13 05:49:49;;;;;;;4.27;1.73;;;;;;;19.24;60.93;98662.63;4935473;29;20206;-58
2023/12/13 05:52:15;;;;;;;3.03;1.60;;;;;;;19.27;60.61;98663.81;4960930;28;20186;-58
2023/12/13 05:54:40;;;;;;;4.63;2.07;;;;;;;19.27;60.55;98655.22;4961745;28;20867;-58
2023/12/13 05:57:06;;;;;;;3.30;1.63;;;;;;;19.25;60.32;98655.66;4967895;28;20529;-58
2023/12/13 05:59:31;;;;;;;3.97;1.40;;;;;;;19.29;60.51;98667.88;4971612;28;20829;-58
2023/12/13 06:01:57;;;;;;;6.33;2.20;;;;;;;19.25;60.53;98655.66;4968758;28;20669;-58
2023/12/13 06:04:22;;;;;;;4.63;1.87;;;;;;;19.26;60.56;98665.06;4971625;28;20748;-58
2023/12/13 06:06:48;;;;;;;4.70;2.13;;;;;;;19.28;60.47;98648.25;4971305;28;20186;-58
2023/12/13 06:09:14;;;;;;;4.87;2.37;;;;;;;19.25;60.53;98644.22;4971176;28;20186;-58
2023/12/13 06:11:40;;;;;;;3.60;1.73;;;;;;;19.25;60.91;98643.38;4970091;28;20462;-59
2023/12/13 06:14:05;;;;;;;2.43;1.33;;;;;;;19.24;60.51;98639.72;4951408;29;20538;-58
2023/12/13 06:16:31;;;;;;;3.83;1.60;;;;;;;19.23;60.63;98638.09;4958883;28;20190;-58
2023/12/13 06:18:57;;;;;;;3.57;1.63;;;;;;;19.28;60.06;98648.25;4970652;28;20202;-58
2023/12/13 06:21:22;;;;;;;3.30;1.70;;;;;;;19.25;60.85;98644.22;4968127;28;20422;-58
2023/12/13 06:23:48;;;;;;;3.20;1.57;;;;;;;19.26;60.55;98654.41;4935486;29;20210;-57
2023/12/13 06:26:13;;;;;;;5.17;2.10;;;;;;;19.28;60.28;98643.38;4959217;28;20241;-58
2023/12/13 06:28:39;;;;;;;3.90;1.67;;;;;;;19.23;60.36;98643.00;4970416;28;20186;-58
2023/12/13 06:31:04;;;;;;;8.30;2.10;;;;;;;19.19;60.10;98640.16;4965820;28;20174;-58
2023/12/13 06:33:29;;;;;;;3.17;1.10;;;;;;;19.19;59.54;98645.88;4970379;28;20185;-58
2023/12/13 06:35:55;;;;;;;11.33;1.83;;;;;;;19.18;60.19;98655.72;4959732;28;20888;-57
2023/12/13 06:38:21;;;;;;;4.97;1.80;;;;;;;19.17;58.96;98650.41;4954177;28;20710;-58
2023/12/13 06:40:46;;;;;;;6.00;1.77;;;;;;;19.21;59.49;98648.31;4951819;29;20654;-58
2023/12/13 06:43:11;;;;;;;4.50;1.40;;;;;;;19.23;59.26;98640.97;4963040;28;20569;-58
2023/12/13 06:45:38;;;;;;;4.70;1.77;;;;;;;19.21;60.01;98649.13;4965610;28;20214;-58
2023/12/13 06:48:04;;;;;;;6.87;1.93;;;;;;;19.24;59.90;98636.03;4951970;29;20472;-58
2023/12/13 06:50:30;;;;;;;5.03;1.43;;;;;;;19.23;59.56;98640.97;4953031;28;20229;-58
2023/12/13 06:52:55;;;;;;;5.03;1.77;;;;;;;19.25;59.95;98644.22;4952800;28;20435;-57
2023/12/13 06:55:21;;;;;;;4.73;1.40;;;;;;;19.24;59.38;98636.88;4955503;28;20209;-57
2023/12/13 06:57:47;;;;;;;4.77;1.40;;;;;;;19.25;59.82;98632.75;4970627;28;20233;-58
2023/12/13 07:00:13;;;;;;;4.10;1.43;;;;;;;19.23;60.11;98640.16;4985276;28;20432;-57
2023/12/13 07:02:39;;;;;;;7.50;1.80;;;;;;;19.26;59.67;98640.09;4968658;28;20426;-57
2023/12/13 07:05:07;;;;;;;4.20;1.50;;;;;;;19.22;59.94;98639.31;4968508;28;20437;-57
2023/12/13 07:07:33;;;;;;;3.73;1.43;;;;;;;19.27;59.77;98641.72;4970221;28;20185;-56
2023/12/13 07:09:59;;;;;;;4.60;1.40;;;;;;;19.22;60.01;98639.31;4970414;28;20430;-57
2023/12/13 07:12:27;;;;;;;4.10;1.40;;;;;;;19.24;59.93;98648.31;4966916;28;20186;-57
2023/12/13 07:14:54;;;;;;;9.50;1.30;;;;;;;19.25;60.06;98649.94;4950679;29;20266;-57
2023/12/13 07:17:19;;;;;;;5.07;1.37;;;;;;;19.23;60.10;98649.56;4965880;28;20480;-57
2023/12/13 07:19:45;;;;;;;2.73;1.27;;;;;;;19.25;60.09;98644.22;4969585;28;21225;-57
2023/12/13 07:22:10;;;;;;;4.67;1.27;;;;;;;19.23;61.00;98649.56;4964901;28;20187;-57
2023/12/13 07:24:36;;;;;;;3.50;1.40;;;;;;;19.23;60.19;98658.13;4969660;28;20210;-57
2023/12/13 07:27:02;;;;;;;4.53;1.50;;;;;;;19.23;60.30;98643.84;4984265;28;20238;-57
2023/12/13 07:29:29;;;;;;;2.40;1.10;;;;;;;19.24;60.00;98656.06;4951857;28;20182;-57
2023/12/13 07:31:55;;;;;;;2.87;1.37;;;;;;;19.23;60.35;98649.56;4968197;28;20769;-57
2023/12/13 07:34:20;;;;;;;4.23;1.80;;;;;;;19.23;60.34;98651.59;4970692;28;20429;-57
2023/12/13 07:36:48;;;;;;;4.77;1.50;;;;;;;19.26;60.06;98659.34;4971014;28;20212;-57
2023/12/13 07:39:15;;;;;;;4.10;1.30;;;;;;;19.26;60.24;98660.13;4966491;28;20218;-57
2023/12/13 07:41:41;;;;;;;5.80;1.50;;;;;;;19.25;60.02;98667.09;4968894;28;20430;-58
2023/12/13 07:44:07;;;;;;;5.23;1.63;;;;;;;19.24;60.36;98668.34;4969862;28;20979;-58
2023/12/13 07:46:32;;;;;;;3.10;1.47;;;;;;;19.23;60.72;98666.72;4969230;28;20186;-58
2023/12/13 07:49:03;;;;;;;3.40;1.40;;;;;;;19.24;60.49;98671.19;4953437;28;20655;-58
2023/12/13 07:51:29;;;;;;;6.23;1.80;;;;;;;19.26;60.42;98671.56;4950736;29;20183;-58
2023/12/13 07:53:55;;;;;;;3.50;1.60;;;;;;;19.26;60.04;98668.72;4963786;28;20472;-57
2023/12/13 07:56:21;;;;;;;2.77;1.20;;;;;;;19.25;60.58;98663.41;4964137;28;20422;-57
2023/12/13 07:58:46;;;;;;;6.27;1.50;;;;;;;19.28;60.22;98663.41;4973773;28;20182;-58
2023/12/13 08:01:14;;;;;;;7.40;1.37;;;;;;;19.25;60.31;98664.22;4968048;28;20190;-58
2023/12/13 08:03:40;;;;;;;4.13;1.50;;;;;;;19.25;60.49;98664.22;4970748;28;20615;-58
2023/12/13 08:06:14;;;;;;;3.10;1.50;;;;;;;19.24;60.23;98656.91;4973904;28;20414;-58
2023/12/13 08:08:39;;;;;;;3.50;1.37;;;;;;;19.26;59.98;98665.84;4973618;28;20182;-58
2023/12/13 08:11:06;;;;;;;3.93;1.53;;;;;;;19.25;60.47;98652.78;4972905;28;20440;-58
2023/12/13 08:13:32;;;;;;;4.17;1.70;;;;;;;19.23;60.05;98661.00;4960536;28;20186;-58
2023/12/13 08:15:58;;;;;;;6.87;1.30;;;;;;;19.25;60.57;98658.50;4954643;28;20784;-58
2023/12/13 08:18:23;;;;;;;3.40;1.20;;;;;;;19.23;60.36;98658.13;4953251;29;20474;-58
2023/12/13 08:20:49;;;;;;;6.60;1.30;;;;;;;19.27;59.94;98666.69;4936450;29;20184;-58
2023/12/13 08:23:14;;;;;;;3.13;1.40;;;;;;;19.25;60.37;98666.28;4954438;28;20206;-57
2023/12/13 08:25:41;;;;;;;2.60;1.20;;;;;;;19.23;60.49;98658.13;4957285;28;20538;-58
2023/12/13 08:28:07;;;;;;;3.50;1.20;;;;;;;19.28;59.87;98665.44;4973519;28;20233;-58
2023/12/13 08:30:32;;;;;;;2.60;1.30;;;;;;;19.27;59.91;98673.19;4973685;28;21201;-58
2023/12/13 08:32:58;;;;;;;3.00;1.47;;;;;;;19.26;60.42;98660.13;4971833;28;20178;-57
2023/12/13 08:35:24;;;;;;;4.03;1.23;;;;;;;19.26;60.45;98663.00;4973416;28;20210;-58
2023/12/13 08:37:49;;;;;;;5.93;1.60;;;;;;;19.25;60.31;98667.09;4973284;28;20241;-58
2023/12/13 08:40:15;;;;;;;2.73;1.17;;;;;;;19.27;60.50;98672.41;4969881;28;20229;-58
2023/12/13 08:42:40;;;;;;;3.50;1.70;;;;;;;19.26;60.16;98668.72;4973505;28;20645;-58
2023/12/13 08:45:06;;;;;;;3.30;1.10;;;;;;;19.27;60.09;98675.25;4955770;28;20227;-58
2023/12/13 08:47:32;;;;;;;4.07;1.17;;;;;;;19.25;60.31;98669.94;4973104;28;20194;-58
2023/12/13 08:49:57;;;;;;;4.07;1.27;;;;;;;19.27;60.31;98666.69;4963521;28;20438;-58
2023/12/13 08:52:23;;;;;;;3.47;1.50;;;;;;;19.27;60.00;98666.69;4952854;29;20924;-58
2023/12/13 08:54:48;;;;;;;2.93;1.53;;;;;;;19.29;60.33;98667.88;4955935;28;20186;-58
2023/12/13 08:57:14;;;;;;;3.70;1.30;;;;;;;19.27;60.68;98660.94;4969719;28;20186;-58
2023/12/13 08:59:39;;;;;;;3.90;1.13;;;;;;;19.25;60.33;98661.38;4973189;28;20178;-57
2023/12/13 09:02:04;;;;;;;4.00;1.47;;;;;;;19.25;60.26;98664.22;4970218;28;20188;-58
2023/12/13 09:04:30;;;;;;;3.27;1.20;;;;;;;19.27;60.25;98663.81;4972377;28;20202;-58
2023/12/13 09:06:55;;;;;;;3.13;1.20;;;;;;;19.25;60.95;98666.28;4970416;28;20182;-57
2023/12/13 09:09:21;;;;;;;4.77;1.20;;;;;;;19.25;60.58;98657.69;4971234;28;20186;-58
2023/12/13 09:11:47;;;;;;;4.57;1.30;;;;;;;19.26;60.25;98659.34;4954949;28;20242;-57
2023/12/13 09:14:13;;;;;;;2.67;1.20;;;;;;;19.27;59.79;98661.75;4952760;29;20175;-58
2023/12/13 09:16:39;;;;;;;2.50;1.20;;;;;;;19.28;60.23;98668.28;4952119;29;20909;-58
2023/12/13 09:19:07;;;;;;;3.53;1.00;;;;;;;19.29;59.78;98667.03;4954361;28;20193;-58
2023/12/13 09:21:32;;;;;;;3.67;1.10;;;;;;;19.28;60.17;98674.84;4959742;28;20186;-58
2023/12/13 09:23:58;;;;;;;4.87;1.70;;;;;;;19.27;60.55;98670.31;4954819;28;20819;-58
2023/12/13 09:26:23;;;;;;;3.50;1.40;;;;;;;19.30;60.35;98669.50;4953470;28;20182;-58
2023/12/13 09:28:49;;;;;;;4.33;1.03;;;;;;;19.26;60.22;98674.44;4951807;29;20210;-58
2023/12/13 09:31:14;;;;;;;3.67;1.27;;;;;;;19.29;60.37;98670.75;4965362;28;20201;-57
2023/12/13 09:33:40;;;;;;;3.97;1.00;;;;;;;19.29;60.25;98672.78;4944830;29;20187;-58
2023/12/13 09:36:06;;;;;;;5.13;1.20;;;;;;;19.29;60.12;98682.19;4953002;29;20242;-58
2023/12/13 09:38:32;;;;;;;5.47;1.33;;;;;;;19.29;60.44;98673.59;4935669;29;20195;-58
2023/12/13 09:40:58;;;;;;;3.40;1.60;;;;;;;19.31;60.10;98673.19;4955421;28;20445;-58
2023/12/13 09:43:23;;;;;;;3.70;1.30;;;;;;;19.29;59.96;98676.47;4990045;23;20260;-66
2023/12/13 09:45:53;;;;;;;4.17;1.43;;;;;;;19.27;60.37;98673.19;4959805;28;20178;-66
2023/12/13 09:48:22;;;;;;;2.47;1.33;;;;;;;19.29;60.38;98667.03;4992388;28;20189;-65
2023/12/13 09:50:51;;;;;;;3.20;1.30;;;;;;;19.30;59.94;98663.78;4966549;28;20468;-65
2023/12/13 09:53:16;;;;;;;3.07;1.20;;;;;;;19.29;60.07;98679.31;4956696;28;20433;-66
2023/12/13 09:55:43;;;;;;;4.50;1.30;;;;;;;19.29;59.97;98678.50;4971211;28;20432;-66
2023/12/13 09:58:08;;;;;;;3.03;1.33;;;;;;;19.28;60.54;98677.69;4959507;28;20248;-66
2023/12/13 10:00:35;;;;;;;8.13;1.40;;;;;;;19.30;59.97;98678.06;4975575;28;20824;-66
2023/12/13 10:03:00;;;;;;;3.40;1.30;;;;;;;19.29;60.28;98687.91;4969454;28;20237;-66
2023/12/13 10:05:26;;;;;;;3.20;1.00;;;;;;;19.29;60.68;98685.03;4957811;28;20448;-66
2023/12/13 10:07:59;;;;;;;2.17;1.03;;;;;;;19.28;60.62;98686.28;4954178;28;20195;-66
2023/12/13 10:10:24;;;;;;;2.53;0.90;;;;;;;19.29;60.67;98679.31;4954541;28;20253;-66
2023/12/13 10:12:52;;;;;;;3.03;1.30;;;;;;;19.30;60.13;98680.13;4953401;28;20426;-66
2023/12/13 10:15:17;;;;;;;4.23;1.20;;;;;;;19.30;60.33;98674.38;4945829;28;20178;-68
2023/12/13 10:17:43;;;;;;;2.57;1.07;;;;;;;19.29;60.17;98670.75;4948100;28;20443;-69
2023/12/13 10:20:08;;;;;;;4.30;1.33;;;;;;;19.28;60.57;98660.53;4956590;28;20174;-68
2023/12/13 10:22:34;;;;;;;2.83;1.10;;;;;;;19.31;59.71;98659.66;4964850;28;20174;-68
2023/12/13 10:24:59;;;;;;;3.90;1.43;;;;;;;19.30;60.36;98660.91;4973528;28;20208;-68
2023/12/13 10:27:25;;;;;;;2.80;1.37;;;;;;;19.31;60.63;98653.94;4951784;28;20186;-69
2023/12/13 10:29:53;;;;;;;4.43;1.30;;;;;;;19.30;60.54;98663.78;4962780;28;20224;-68
2023/12/13 10:32:19;;;;;;;2.83;1.00;;;;;;;19.32;59.87;98666.22;4982696;28;20232;-68
2023/12/13 10:34:46;;;;;;;5.57;1.10;;;;;;;19.32;59.62;98658.41;4978928;28;20447;-68
2023/12/13 10:37:12;;;;;;;3.73;1.43;;;;;;;19.31;59.91;98656.00;5002444;28;20428;-68
2023/12/13 10:39:37;;;;;;;2.63;1.00;;;;;;;19.30;60.22;98655.19;4970536;28;20517;-68
2023/12/13 10:42:03;;;;;;;3.60;1.37;;;;;;;19.30;60.05;98651.50;4997311;28;20434;-68
2023/12/13 10:44:30;;;;;;;3.77;1.13;;;;;;;19.32;60.04;98649.84;4985482;28;20279;-68
2023/12/13 10:46:56;;;;;;;4.03;1.20;;;;;;;19.31;60.09;98653.94;4982783;28;20184;-69
2023/12/13 10:49:22;;;;;;;4.80;1.20;;;;;;;19.35;59.55;98642.44;4987600;28;20432;-69
2023/12/13 10:51:48;;;;;;;5.30;1.30;;;;;;;19.30;60.21;98640.88;4989890;28;20639;-68
2023/12/13 10:54:13;;;;;;;4.03;1.23;;;;;;;19.31;59.97;98639.63;5001463;28;20185;-68
2023/12/13 10:56:39;;;;;;;3.10;1.20;;;;;;;19.33;60.27;98647.78;4984624;28;20576;-68
2023/12/13 10:59:06;;;;;;;3.93;1.20;;;;;;;19.31;59.90;98642.50;4991479;28;20173;-68
2023/12/13 11:01:31;;;;;;;2.27;0.93;;;;;;;19.34;60.20;98640.84;5015649;28;20197;-68
2023/12/13 11:04:18;;;;;;;5.60;1.40;;;;;;;19.33;60.39;98645.75;4981358;28;20700;-68
2023/12/13 11:06:47;;;;;;;2.50;1.17;;;;;;;19.31;60.00;98653.16;5008288;28;20182;-68
2023/12/13 11:09:17;;;;;;;3.87;1.40;;;;;;;19.32;59.79;98644.13;4986697;28;20972;-68
2023/12/13 11:11:42;;;;;;;2.70;1.10;;;;;;;19.31;59.76;98639.63;4987426;28;21332;-68
2023/12/13 11:14:09;;;;;;;4.63;1.50;;;;;;;19.32;60.20;98640.47;4969583;28;20464;-68
2023/12/13 11:16:42;;;;;;;4.97;1.70;;;;;;;19.31;60.05;98636.78;4971815;28;20177;-68
2023/12/13 11:19:10;;;;;;;4.47;1.10;;;;;;;19.32;59.84;98635.53;4984960;28;20417;-69
2023/12/13 11:21:36;;;;;;;2.97;1.17;;;;;;;19.33;59.82;98644.94;4999515;28;20432;-68
2023/12/13 11:24:15;;;;;;;5.13;1.40;;;;;;;19.30;60.26;98629.44;4982774;28;20486;-68
2023/12/13 11:26:46;;;;;;;3.57;1.20;;;;;;;19.31;60.42;98636.78;4988056;28;20201;-68
2023/12/13 11:29:28;;;;;;;5.80;1.47;;;;;;;19.31;60.03;98628.19;4968734;28;20443;-68